sensor_id;sensor_type;location;lat;lon;timestamp;P1;durP1;ratioP1;P2;durP2;ratioP2
23543;SDS011;11950;51.230;4.012;2022-07-01T00:00:19;8.55;;;5.45;;
23543;SDS011;11950;51.230;4.012;2022-07-01T00:02:46;6.68;;;5.57;;
23543;SDS011;11950;51.230;4.012;2022-07-01T00:05:12;10.57;;;5.45;;
23543;SDS011;11950;51.230;4.012;2022-07-01T00:07:45;6.53;;;5.85;;
23543;SDS011;11950;51.230;4.012;2022-07-01T00:10:12;9.95;;;5.88;;
23543;SDS011;11950;51.230;4.012;2022-07-01T00:12:39;9.25;;;6.03;;
23543;SDS011;11950;51.230;4.012;2022-07-01T00:15:05;8.40;;;6.05;;
23543;SDS011;11950;51.230;4.012;2022-07-01T00:17:32;7.15;;;5.40;;
23543;SDS011;11950;51.230;4.012;2022-07-01T00:19:58;6.43;;;5.82;;
23543;SDS011;11950;51.230;4.012;2022-07-01T00:22:24;6.63;;;5.97;;
23543;SDS011;11950;51.230;4.012;2022-07-01T00:24:53;8.18;;;5.97;;
23543;SDS011;11950;51.230;4.012;2022-07-01T00:27:20;9.13;;;6.88;;
23543;SDS011;11950;51.230;4.012;2022-07-01T00:29:47;8.35;;;6.22;;
23543;SDS011;11950;51.230;4.012;2022-07-01T00:32:14;8.10;;;6.18;;
23543;SDS011;11950;51.230;4.012;2022-07-01T00:34:40;7.15;;;6.38;;
23543;SDS011;11950;51.230;4.012;2022-07-01T00:37:06;9.13;;;5.95;;
23543;SDS011;11950;51.230;4.012;2022-07-01T00:39:33;6.22;;;5.25;;
23543;SDS011;11950;51.230;4.012;2022-07-01T00:42:01;7.45;;;5.45;;
23543;SDS011;11950;51.230;4.012;2022-07-01T00:44:29;8.60;;;5.45;;
23543;SDS011;11950;51.230;4.012;2022-07-01T00:46:56;7.25;;;4.78;;
23543;SDS011;11950;51.230;4.012;2022-07-01T00:49:28;5.68;;;5.07;;
23543;SDS011;11950;51.230;4.012;2022-07-01T00:51:55;6.22;;;5.10;;
23543;SDS011;11950;51.230;4.012;2022-07-01T00:54:23;6.93;;;4.40;;
23543;SDS011;11950;51.230;4.012;2022-07-01T00:56:49;6.57;;;5.18;;
23543;SDS011;11950;51.230;4.012;2022-07-01T00:59:16;8.40;;;5.20;;
23543;SDS011;11950;51.230;4.012;2022-07-01T01:01:42;6.20;;;5.03;;
23543;SDS011;11950;51.230;4.012;2022-07-01T01:04:09;7.68;;;4.63;;
23543;SDS011;11950;51.230;4.012;2022-07-01T01:06:35;6.47;;;5.30;;
23543;SDS011;11950;51.230;4.012;2022-07-01T01:09:02;6.93;;;5.30;;
23543;SDS011;11950;51.230;4.012;2022-07-01T01:11:28;7.25;;;5.43;;
23543;SDS011;11950;51.230;4.012;2022-07-01T01:13:55;7.38;;;5.28;;
23543;SDS011;11950;51.230;4.012;2022-07-01T01:16:22;7.25;;;5.47;;
23543;SDS011;11950;51.230;4.012;2022-07-01T01:18:49;6.93;;;5.53;;
23543;SDS011;11950;51.230;4.012;2022-07-01T01:21:15;6.43;;;5.32;;
23543;SDS011;11950;51.230;4.012;2022-07-01T01:23:42;12.02;;;5.88;;
23543;SDS011;11950;51.230;4.012;2022-07-01T01:26:15;10.60;;;6.00;;
23543;SDS011;11950;51.230;4.012;2022-07-01T01:28:43;8.05;;;6.07;;
23543;SDS011;11950;51.230;4.012;2022-07-01T01:31:09;8.05;;;6.45;;
23543;SDS011;11950;51.230;4.012;2022-07-01T01:33:37;9.75;;;5.75;;
23543;SDS011;11950;51.230;4.012;2022-07-01T01:36:04;11.38;;;6.30;;
23543;SDS011;11950;51.230;4.012;2022-07-01T01:38:32;8.25;;;6.60;;
23543;SDS011;11950;51.230;4.012;2022-07-01T01:41:02;9.50;;;6.53;;
23543;SDS011;11950;51.230;4.012;2022-07-01T01:43:29;10.23;;;6.18;;
23543;SDS011;11950;51.230;4.012;2022-07-01T01:45:56;10.00;;;6.43;;
23543;SDS011;11950;51.230;4.012;2022-07-01T01:48:22;9.77;;;6.65;;
23543;SDS011;11950;51.230;4.012;2022-07-01T01:50:48;8.23;;;6.25;;
23543;SDS011;11950;51.230;4.012;2022-07-01T01:53:15;7.82;;;5.90;;
23543;SDS011;11950;51.230;4.012;2022-07-01T01:55:41;11.52;;;6.63;;
23543;SDS011;11950;51.230;4.012;2022-07-01T01:58:08;8.18;;;6.60;;
23543;SDS011;11950;51.230;4.012;2022-07-01T02:00:34;20.65;;;6.80;;
23543;SDS011;11950;51.230;4.012;2022-07-01T02:03:00;9.20;;;6.40;;
23543;SDS011;11950;51.230;4.012;2022-07-01T02:05:26;7.15;;;5.55;;
23543;SDS011;11950;51.230;4.012;2022-07-01T02:07:53;6.68;;;5.68;;
23543;SDS011;11950;51.230;4.012;2022-07-01T02:10:19;6.70;;;5.35;;
23543;SDS011;11950;51.230;4.012;2022-07-01T02:12:46;7.13;;;5.65;;
23543;SDS011;11950;51.230;4.012;2022-07-01T02:15:13;8.85;;;5.80;;
23543;SDS011;11950;51.230;4.012;2022-07-01T02:17:39;10.15;;;5.70;;
23543;SDS011;11950;51.230;4.012;2022-07-01T02:20:05;11.20;;;5.47;;
23543;SDS011;11950;51.230;4.012;2022-07-01T02:22:32;8.40;;;5.07;;
23543;SDS011;11950;51.230;4.012;2022-07-01T02:24:58;9.52;;;4.75;;
23543;SDS011;11950;51.230;4.012;2022-07-01T02:27:24;7.68;;;4.88;;
23543;SDS011;11950;51.230;4.012;2022-07-01T02:29:51;7.15;;;4.90;;
23543;SDS011;11950;51.230;4.012;2022-07-01T02:32:17;8.73;;;4.85;;
23543;SDS011;11950;51.230;4.012;2022-07-01T02:34:44;6.38;;;5.30;;
23543;SDS011;11950;51.230;4.012;2022-07-01T02:37:10;6.50;;;5.05;;
23543;SDS011;11950;51.230;4.012;2022-07-01T02:39:37;7.25;;;4.30;;
23543;SDS011;11950;51.230;4.012;2022-07-01T02:42:03;7.03;;;4.95;;
23543;SDS011;11950;51.230;4.012;2022-07-01T02:44:48;4.47;;;3.88;;
23543;SDS011;11950;51.230;4.012;2022-07-01T02:47:14;6.93;;;4.53;;
23543;SDS011;11950;51.230;4.012;2022-07-01T02:49:41;5.65;;;5.05;;
23543;SDS011;11950;51.230;4.012;2022-07-01T02:52:07;6.18;;;4.68;;
23543;SDS011;11950;51.230;4.012;2022-07-01T02:54:33;9.77;;;5.45;;
23543;SDS011;11950;51.230;4.012;2022-07-01T02:57:00;6.82;;;5.30;;
23543;SDS011;11950;51.230;4.012;2022-07-01T02:59:26;7.45;;;4.93;;
23543;SDS011;11950;51.230;4.012;2022-07-01T03:01:54;7.95;;;4.65;;
23543;SDS011;11950;51.230;4.012;2022-07-01T03:04:20;7.15;;;5.28;;
23543;SDS011;11950;51.230;4.012;2022-07-01T03:06:47;5.40;;;4.40;;
23543;SDS011;11950;51.230;4.012;2022-07-01T03:09:13;4.75;;;4.30;;
23543;SDS011;11950;51.230;4.012;2022-07-01T03:11:39;4.75;;;4.20;;
23543;SDS011;11950;51.230;4.012;2022-07-01T03:14:05;5.07;;;4.57;;
23543;SDS011;11950;51.230;4.012;2022-07-01T03:16:32;6.18;;;4.30;;
23543;SDS011;11950;51.230;4.012;2022-07-01T03:18:58;5.63;;;4.30;;
23543;SDS011;11950;51.230;4.012;2022-07-01T03:21:24;6.07;;;4.18;;
23543;SDS011;11950;51.230;4.012;2022-07-01T03:23:50;8.85;;;4.25;;
23543;SDS011;11950;51.230;4.012;2022-07-01T03:26:17;4.63;;;4.20;;
23543;SDS011;11950;51.230;4.012;2022-07-01T03:28:43;6.60;;;4.47;;
23543;SDS011;11950;51.230;4.012;2022-07-01T03:31:10;5.55;;;4.75;;
23543;SDS011;11950;51.230;4.012;2022-07-01T03:33:36;7.55;;;5.00;;
23543;SDS011;11950;51.230;4.012;2022-07-01T03:36:02;7.35;;;4.65;;
23543;SDS011;11950;51.230;4.012;2022-07-01T03:38:28;5.22;;;4.28;;
23543;SDS011;11950;51.230;4.012;2022-07-01T03:40:55;5.90;;;4.78;;
23543;SDS011;11950;51.230;4.012;2022-07-01T03:43:21;9.07;;;4.90;;
23543;SDS011;11950;51.230;4.012;2022-07-01T03:45:47;7.22;;;5.03;;
23543;SDS011;11950;51.230;4.012;2022-07-01T03:48:14;8.38;;;5.55;;
23543;SDS011;11950;51.230;4.012;2022-07-01T03:50:41;5.88;;;5.25;;
23543;SDS011;11950;51.230;4.012;2022-07-01T03:53:08;5.72;;;5.10;;
23543;SDS011;11950;51.230;4.012;2022-07-01T03:55:52;8.23;;;4.90;;
23543;SDS011;11950;51.230;4.012;2022-07-01T03:58:19;6.70;;;4.57;;
23543;SDS011;11950;51.230;4.012;2022-07-01T04:00:45;8.57;;;5.38;;
23543;SDS011;11950;51.230;4.012;2022-07-01T04:03:11;7.25;;;5.18;;
23543;SDS011;11950;51.230;4.012;2022-07-01T04:05:38;6.95;;;5.03;;
23543;SDS011;11950;51.230;4.012;2022-07-01T04:08:05;5.75;;;5.15;;
23543;SDS011;11950;51.230;4.012;2022-07-01T04:10:33;7.05;;;5.20;;
23543;SDS011;11950;51.230;4.012;2022-07-01T04:13:00;7.10;;;5.05;;
23543;SDS011;11950;51.230;4.012;2022-07-01T04:15:28;6.68;;;5.32;;
23543;SDS011;11950;51.230;4.012;2022-07-01T04:17:54;9.02;;;5.57;;
23543;SDS011;11950;51.230;4.012;2022-07-01T04:20:21;5.75;;;5.10;;
23543;SDS011;11950;51.230;4.012;2022-07-01T04:22:47;7.75;;;4.90;;
23543;SDS011;11950;51.230;4.012;2022-07-01T04:25:14;6.93;;;5.25;;
23543;SDS011;11950;51.230;4.012;2022-07-01T04:27:40;6.30;;;4.82;;
23543;SDS011;11950;51.230;4.012;2022-07-01T04:30:07;6.30;;;4.70;;
23543;SDS011;11950;51.230;4.012;2022-07-01T04:32:34;8.30;;;5.20;;
23543;SDS011;11950;51.230;4.012;2022-07-01T04:35:01;8.88;;;4.97;;
23543;SDS011;11950;51.230;4.012;2022-07-01T04:37:28;7.75;;;4.68;;
23543;SDS011;11950;51.230;4.012;2022-07-01T04:39:54;5.60;;;4.47;;
23543;SDS011;11950;51.230;4.012;2022-07-01T04:42:20;8.32;;;4.97;;
23543;SDS011;11950;51.230;4.012;2022-07-01T04:44:47;5.25;;;4.43;;
23543;SDS011;11950;51.230;4.012;2022-07-01T04:47:14;8.10;;;5.15;;
23543;SDS011;11950;51.230;4.012;2022-07-01T04:49:40;7.93;;;4.97;;
23543;SDS011;11950;51.230;4.012;2022-07-01T04:52:06;5.65;;;4.43;;
23543;SDS011;11950;51.230;4.012;2022-07-01T04:54:33;5.25;;;4.68;;
23543;SDS011;11950;51.230;4.012;2022-07-01T04:56:59;7.38;;;4.20;;
23543;SDS011;11950;51.230;4.012;2022-07-01T04:59:25;5.85;;;4.90;;
23543;SDS011;11950;51.230;4.012;2022-07-01T05:01:51;5.28;;;4.70;;
23543;SDS011;11950;51.230;4.012;2022-07-01T05:04:18;6.70;;;4.75;;
23543;SDS011;11950;51.230;4.012;2022-07-01T05:06:44;8.07;;;4.88;;
23543;SDS011;11950;51.230;4.012;2022-07-01T05:09:11;6.28;;;4.57;;
23543;SDS011;11950;51.230;4.012;2022-07-01T05:11:38;7.43;;;5.28;;
23543;SDS011;11950;51.230;4.012;2022-07-01T05:14:05;7.15;;;5.32;;
23543;SDS011;11950;51.230;4.012;2022-07-01T05:16:32;6.82;;;4.88;;
23543;SDS011;11950;51.230;4.012;2022-07-01T05:18:59;8.88;;;5.07;;
23543;SDS011;11950;51.230;4.012;2022-07-01T05:21:44;8.20;;;5.43;;
23543;SDS011;11950;51.230;4.012;2022-07-01T05:24:23;11.65;;;5.47;;
23543;SDS011;11950;51.230;4.012;2022-07-01T05:29:20;9.05;;;5.45;;
23543;SDS011;11950;51.230;4.012;2022-07-01T05:31:47;6.53;;;5.25;;
23543;SDS011;11950;51.230;4.012;2022-07-01T05:34:13;6.90;;;5.32;;
23543;SDS011;11950;51.230;4.012;2022-07-01T05:36:40;9.32;;;5.28;;
23543;SDS011;11950;51.230;4.012;2022-07-01T05:39:06;10.43;;;5.60;;
23543;SDS011;11950;51.230;4.012;2022-07-01T05:41:32;9.43;;;5.10;;
23543;SDS011;11950;51.230;4.012;2022-07-01T05:44:00;11.68;;;5.60;;
23543;SDS011;11950;51.230;4.012;2022-07-01T05:46:26;8.43;;;5.93;;
23543;SDS011;11950;51.230;4.012;2022-07-01T05:48:53;10.70;;;5.70;;
23543;SDS011;11950;51.230;4.012;2022-07-01T05:51:19;11.65;;;5.32;;
23543;SDS011;11950;51.230;4.012;2022-07-01T05:53:45;7.15;;;4.85;;
23543;SDS011;11950;51.230;4.012;2022-07-01T05:56:13;9.68;;;5.53;;
23543;SDS011;11950;51.230;4.012;2022-07-01T05:58:40;10.48;;;5.35;;
23543;SDS011;11950;51.230;4.012;2022-07-01T06:01:07;8.13;;;5.13;;
23543;SDS011;11950;51.230;4.012;2022-07-01T06:03:33;8.02;;;4.90;;
23543;SDS011;11950;51.230;4.012;2022-07-01T06:05:59;7.15;;;5.38;;
23543;SDS011;11950;51.230;4.012;2022-07-01T06:08:26;10.35;;;5.53;;
23543;SDS011;11950;51.230;4.012;2022-07-01T06:10:52;6.30;;;5.47;;
23543;SDS011;11950;51.230;4.012;2022-07-01T06:13:18;9.80;;;5.13;;
23543;SDS011;11950;51.230;4.012;2022-07-01T06:15:45;8.55;;;5.05;;
23543;SDS011;11950;51.230;4.012;2022-07-01T06:18:11;8.98;;;5.47;;
23543;SDS011;11950;51.230;4.012;2022-07-01T06:20:37;9.27;;;4.80;;
23543;SDS011;11950;51.230;4.012;2022-07-01T06:23:04;8.85;;;5.55;;
23543;SDS011;11950;51.230;4.012;2022-07-01T06:25:30;6.35;;;3.97;;
23543;SDS011;11950;51.230;4.012;2022-07-01T06:27:56;6.32;;;4.70;;
23543;SDS011;11950;51.230;4.012;2022-07-01T06:30:23;8.00;;;4.15;;
23543;SDS011;11950;51.230;4.012;2022-07-01T06:32:49;9.15;;;4.45;;
23543;SDS011;11950;51.230;4.012;2022-07-01T06:35:15;9.73;;;4.70;;
23543;SDS011;11950;51.230;4.012;2022-07-01T06:37:42;8.43;;;4.70;;
23543;SDS011;11950;51.230;4.012;2022-07-01T06:40:08;8.65;;;4.72;;
23543;SDS011;11950;51.230;4.012;2022-07-01T06:42:34;6.28;;;4.03;;
23543;SDS011;11950;51.230;4.012;2022-07-01T06:45:01;7.53;;;4.38;;
23543;SDS011;11950;51.230;4.012;2022-07-01T06:47:27;6.78;;;3.33;;
23543;SDS011;11950;51.230;4.012;2022-07-01T06:49:54;6.43;;;4.47;;
23543;SDS011;11950;51.230;4.012;2022-07-01T06:52:20;6.75;;;3.80;;
23543;SDS011;11950;51.230;4.012;2022-07-01T06:54:46;10.07;;;3.45;;
23543;SDS011;11950;51.230;4.012;2022-07-01T06:57:13;6.97;;;3.45;;
23543;SDS011;11950;51.230;4.012;2022-07-01T06:59:39;9.20;;;3.58;;
23543;SDS011;11950;51.230;4.012;2022-07-01T07:02:06;9.43;;;3.42;;
23543;SDS011;11950;51.230;4.012;2022-07-01T07:04:33;7.40;;;3.22;;
23543;SDS011;11950;51.230;4.012;2022-07-01T07:07:00;5.75;;;2.90;;
23543;SDS011;11950;51.230;4.012;2022-07-01T07:09:27;7.85;;;3.13;;
23543;SDS011;11950;51.230;4.012;2022-07-01T07:11:53;8.95;;;3.05;;
23543;SDS011;11950;51.230;4.012;2022-07-01T07:14:20;6.97;;;3.10;;
23543;SDS011;11950;51.230;4.012;2022-07-01T07:16:46;6.47;;;3.30;;
23543;SDS011;11950;51.230;4.012;2022-07-01T07:19:12;8.68;;;3.03;;
23543;SDS011;11950;51.230;4.012;2022-07-01T07:21:39;7.00;;;3.20;;
23543;SDS011;11950;51.230;4.012;2022-07-01T07:24:05;9.02;;;3.95;;
23543;SDS011;11950;51.230;4.012;2022-07-01T07:26:32;8.02;;;3.28;;
23543;SDS011;11950;51.230;4.012;2022-07-01T07:28:58;6.25;;;2.78;;
23543;SDS011;11950;51.230;4.012;2022-07-01T07:31:24;6.47;;;3.42;;
23543;SDS011;11950;51.230;4.012;2022-07-01T07:33:50;6.50;;;3.05;;
23543;SDS011;11950;51.230;4.012;2022-07-01T07:36:17;5.55;;;2.80;;
23543;SDS011;11950;51.230;4.012;2022-07-01T07:38:43;4.57;;;2.65;;
23543;SDS011;11950;51.230;4.012;2022-07-01T07:41:09;5.35;;;2.83;;
23543;SDS011;11950;51.230;4.012;2022-07-01T07:43:35;7.25;;;2.60;;
23543;SDS011;11950;51.230;4.012;2022-07-01T07:46:02;5.68;;;3.38;;
23543;SDS011;11950;51.230;4.012;2022-07-01T07:48:30;4.63;;;2.70;;
23543;SDS011;11950;51.230;4.012;2022-07-01T07:50:56;8.43;;;2.47;;
23543;SDS011;11950;51.230;4.012;2022-07-01T07:53:23;6.07;;;2.08;;
23543;SDS011;11950;51.230;4.012;2022-07-01T07:55:49;5.68;;;2.10;;
23543;SDS011;11950;51.230;4.012;2022-07-01T07:58:15;8.43;;;2.72;;
23543;SDS011;11950;51.230;4.012;2022-07-01T08:00:43;7.78;;;1.92;;
23543;SDS011;11950;51.230;4.012;2022-07-01T08:03:09;4.05;;;1.90;;
23543;SDS011;11950;51.230;4.012;2022-07-01T08:05:35;5.43;;;2.35;;
23543;SDS011;11950;51.230;4.012;2022-07-01T08:08:01;4.63;;;1.63;;
23543;SDS011;11950;51.230;4.012;2022-07-01T08:10:28;4.72;;;1.30;;
23543;SDS011;11950;51.230;4.012;2022-07-01T08:12:54;4.72;;;1.50;;
23543;SDS011;11950;51.230;4.012;2022-07-01T08:15:22;4.60;;;1.63;;
23543;SDS011;11950;51.230;4.012;2022-07-01T08:17:48;4.28;;;1.25;;
23543;SDS011;11950;51.230;4.012;2022-07-01T08:20:15;4.78;;;1.23;;
23543;SDS011;11950;51.230;4.012;2022-07-01T08:22:42;7.82;;;1.98;;
23543;SDS011;11950;51.230;4.012;2022-07-01T08:25:08;4.97;;;1.10;;
23543;SDS011;11950;51.230;4.012;2022-07-01T08:27:35;3.65;;;1.50;;
23543;SDS011;11950;51.230;4.012;2022-07-01T08:30:01;5.25;;;1.65;;
23543;SDS011;11950;51.230;4.012;2022-07-01T08:32:27;4.22;;;1.40;;
23543;SDS011;11950;51.230;4.012;2022-07-01T08:34:55;5.05;;;1.98;;
23543;SDS011;11950;51.230;4.012;2022-07-01T08:37:22;7.80;;;1.40;;
23543;SDS011;11950;51.230;4.012;2022-07-01T08:39:48;6.55;;;1.40;;
23543;SDS011;11950;51.230;4.012;2022-07-01T08:42:14;4.90;;;1.00;;
23543;SDS011;11950;51.230;4.012;2022-07-01T08:44:41;3.25;;;1.10;;
23543;SDS011;11950;51.230;4.012;2022-07-01T08:47:10;7.47;;;1.67;;
23543;SDS011;11950;51.230;4.012;2022-07-01T08:49:38;4.68;;;1.17;;
23543;SDS011;11950;51.230;4.012;2022-07-01T08:52:05;4.13;;;0.93;;
23543;SDS011;11950;51.230;4.012;2022-07-01T08:54:33;5.43;;;0.90;;
23543;SDS011;11950;51.230;4.012;2022-07-01T08:56:59;2.63;;;0.98;;
23543;SDS011;11950;51.230;4.012;2022-07-01T08:59:26;7.63;;;1.20;;
23543;SDS011;11950;51.230;4.012;2022-07-01T09:01:56;4.53;;;1.30;;
23543;SDS011;11950;51.230;4.012;2022-07-01T09:04:24;3.00;;;1.00;;
23543;SDS011;11950;51.230;4.012;2022-07-01T09:06:51;5.97;;;1.10;;
23543;SDS011;11950;51.230;4.012;2022-07-01T09:09:33;4.90;;;0.90;;
23543;SDS011;11950;51.230;4.012;2022-07-01T09:12:01;2.50;;;0.95;;
23543;SDS011;11950;51.230;4.012;2022-07-01T09:14:29;2.53;;;0.70;;
23543;SDS011;11950;51.230;4.012;2022-07-01T09:16:58;2.38;;;0.90;;
23543;SDS011;11950;51.230;4.012;2022-07-01T09:19:26;3.47;;;1.00;;
23543;SDS011;11950;51.230;4.012;2022-07-01T09:21:55;2.67;;;0.80;;
23543;SDS011;11950;51.230;4.012;2022-07-01T09:26:57;2.33;;;0.70;;
23543;SDS011;11950;51.230;4.012;2022-07-01T09:29:46;4.45;;;0.60;;
23543;SDS011;11950;51.230;4.012;2022-07-01T09:32:19;4.10;;;0.63;;
23543;SDS011;11950;51.230;4.012;2022-07-01T09:37:14;3.72;;;0.60;;
23543;SDS011;11950;51.230;4.012;2022-07-01T09:42:10;4.65;;;0.60;;
23543;SDS011;11950;51.230;4.012;2022-07-01T09:47:22;3.22;;;0.50;;
23543;SDS011;11950;51.230;4.012;2022-07-01T09:49:53;0.63;;;0.40;;
23543;SDS011;11950;51.230;4.012;2022-07-01T09:52:20;2.38;;;0.52;;
23543;SDS011;11950;51.230;4.012;2022-07-01T09:54:47;2.97;;;0.55;;
23543;SDS011;11950;51.230;4.012;2022-07-01T09:57:15;2.10;;;0.50;;
23543;SDS011;11950;51.230;4.012;2022-07-01T09:59:42;2.08;;;0.40;;
23543;SDS011;11950;51.230;4.012;2022-07-01T10:02:09;2.08;;;0.50;;
23543;SDS011;11950;51.230;4.012;2022-07-01T10:04:36;5.88;;;0.68;;
23543;SDS011;11950;51.230;4.012;2022-07-01T10:12:30;2.25;;;0.50;;
23543;SDS011;11950;51.230;4.012;2022-07-01T10:14:57;0.88;;;0.35;;
23543;SDS011;11950;51.230;4.012;2022-07-01T10:17:32;1.52;;;0.50;;
23543;SDS011;11950;51.230;4.012;2022-07-01T10:20:07;1.88;;;0.50;;
23543;SDS011;11950;51.230;4.012;2022-07-01T10:22:49;3.17;;;0.60;;
23543;SDS011;11950;51.230;4.012;2022-07-01T10:25:39;1.60;;;0.50;;
23543;SDS011;11950;51.230;4.012;2022-07-01T10:28:23;2.80;;;0.50;;
23543;SDS011;11950;51.230;4.012;2022-07-01T10:31:11;4.45;;;0.65;;
23543;SDS011;11950;51.230;4.012;2022-07-01T10:41:33;2.63;;;0.60;;
23543;SDS011;11950;51.230;4.012;2022-07-01T10:44:04;3.05;;;0.70;;
23543;SDS011;11950;51.230;4.012;2022-07-01T10:46:48;2.50;;;0.50;;
23543;SDS011;11950;51.230;4.012;2022-07-01T10:52:06;1.45;;;0.50;;
23543;SDS011;11950;51.230;4.012;2022-07-01T11:02:15;3.33;;;0.52;;
23543;SDS011;11950;51.230;4.012;2022-07-01T11:04:42;2.58;;;0.50;;
23543;SDS011;11950;51.230;4.012;2022-07-01T11:07:08;2.58;;;0.68;;
23543;SDS011;11950;51.230;4.012;2022-07-01T11:09:35;3.22;;;0.50;;
23543;SDS011;11950;51.230;4.012;2022-07-01T11:12:02;5.45;;;0.60;;
23543;SDS011;11950;51.230;4.012;2022-07-01T11:14:28;2.35;;;0.57;;
23543;SDS011;11950;51.230;4.012;2022-07-01T11:16:58;2.33;;;0.50;;
23543;SDS011;11950;51.230;4.012;2022-07-01T11:19:26;1.33;;;0.40;;
23543;SDS011;11950;51.230;4.012;2022-07-01T11:21:53;1.00;;;0.45;;
23543;SDS011;11950;51.230;4.012;2022-07-01T11:24:20;1.95;;;0.50;;
23543;SDS011;11950;51.230;4.012;2022-07-01T11:26:48;0.88;;;0.50;;
23543;SDS011;11950;51.230;4.012;2022-07-01T11:29:19;2.83;;;0.55;;
23543;SDS011;11950;51.230;4.012;2022-07-01T11:31:53;3.53;;;0.50;;
23543;SDS011;11950;51.230;4.012;2022-07-01T11:34:20;4.95;;;0.60;;
23543;SDS011;11950;51.230;4.012;2022-07-01T11:36:46;4.90;;;0.52;;
23543;SDS011;11950;51.230;4.012;2022-07-01T11:39:32;1.35;;;0.65;;
23543;SDS011;11950;51.230;4.012;2022-07-01T11:42:01;4.57;;;0.55;;
23543;SDS011;11950;51.230;4.012;2022-07-01T11:44:31;2.90;;;0.50;;
23543;SDS011;11950;51.230;4.012;2022-07-01T11:46:58;3.83;;;0.50;;
23543;SDS011;11950;51.230;4.012;2022-07-01T11:49:26;4.03;;;0.43;;
23543;SDS011;11950;51.230;4.012;2022-07-01T11:52:02;3.33;;;0.50;;
23543;SDS011;11950;51.230;4.012;2022-07-01T11:54:37;1.20;;;0.55;;
23543;SDS011;11950;51.230;4.012;2022-07-01T11:57:08;2.72;;;0.30;;
23543;SDS011;11950;51.230;4.012;2022-07-01T11:59:35;1.80;;;0.40;;
23543;SDS011;11950;51.230;4.012;2022-07-01T12:02:04;1.35;;;0.40;;
23543;SDS011;11950;51.230;4.012;2022-07-01T12:04:31;1.42;;;0.45;;
23543;SDS011;11950;51.230;4.012;2022-07-01T12:06:58;3.22;;;0.60;;
23543;SDS011;11950;51.230;4.012;2022-07-01T12:09:25;2.40;;;0.75;;
23543;SDS011;11950;51.230;4.012;2022-07-01T12:11:52;1.58;;;0.57;;
23543;SDS011;11950;51.230;4.012;2022-07-01T12:14:19;3.85;;;0.50;;
23543;SDS011;11950;51.230;4.012;2022-07-01T12:16:52;2.40;;;0.60;;
23543;SDS011;11950;51.230;4.012;2022-07-01T12:19:19;2.83;;;0.75;;
23543;SDS011;11950;51.230;4.012;2022-07-01T12:21:52;3.63;;;0.82;;
23543;SDS011;11950;51.230;4.012;2022-07-01T12:24:20;3.03;;;1.20;;
23543;SDS011;11950;51.230;4.012;2022-07-01T12:27:11;2.75;;;0.93;;
23543;SDS011;11950;51.230;4.012;2022-07-01T12:32:03;3.95;;;1.00;;
23543;SDS011;11950;51.230;4.012;2022-07-01T12:37:16;1.63;;;1.00;;
23543;SDS011;11950;51.230;4.012;2022-07-01T12:39:48;3.00;;;0.90;;
23543;SDS011;11950;51.230;4.012;2022-07-01T12:42:29;1.88;;;0.80;;
23543;SDS011;11950;51.230;4.012;2022-07-01T12:45:03;3.22;;;0.98;;
23543;SDS011;11950;51.230;4.012;2022-07-01T12:47:36;3.25;;;0.90;;
23543;SDS011;11950;51.230;4.012;2022-07-01T12:52:36;3.58;;;1.20;;
23543;SDS011;11950;51.230;4.012;2022-07-01T12:55:19;1.45;;;0.90;;
23543;SDS011;11950;51.230;4.012;2022-07-01T12:57:49;2.42;;;1.02;;
23543;SDS011;11950;51.230;4.012;2022-07-01T13:00:17;3.92;;;1.10;;
23543;SDS011;11950;51.230;4.012;2022-07-01T13:02:44;2.00;;;1.00;;
23543;SDS011;11950;51.230;4.012;2022-07-01T13:05:11;1.88;;;1.20;;
23543;SDS011;11950;51.230;4.012;2022-07-01T13:07:38;4.85;;;1.13;;
23543;SDS011;11950;51.230;4.012;2022-07-01T13:10:05;3.28;;;1.30;;
23543;SDS011;11950;51.230;4.012;2022-07-01T13:12:32;4.95;;;2.10;;
23543;SDS011;11950;51.230;4.012;2022-07-01T13:14:58;5.30;;;1.95;;
23543;SDS011;11950;51.230;4.012;2022-07-01T13:17:24;5.32;;;2.97;;
23543;SDS011;11950;51.230;4.012;2022-07-01T13:19:51;5.05;;;3.25;;
23543;SDS011;11950;51.230;4.012;2022-07-01T13:22:18;9.70;;;4.63;;
23543;SDS011;11950;51.230;4.012;2022-07-01T13:24:44;10.20;;;5.40;;
23543;SDS011;11950;51.230;4.012;2022-07-01T13:27:10;11.13;;;6.18;;
23543;SDS011;11950;51.230;4.012;2022-07-01T13:29:37;11.38;;;6.85;;
23543;SDS011;11950;51.230;4.012;2022-07-01T13:32:04;10.73;;;6.88;;
23543;SDS011;11950;51.230;4.012;2022-07-01T13:34:32;15.43;;;7.55;;
23543;SDS011;11950;51.230;4.012;2022-07-01T13:36:59;9.80;;;5.85;;
23543;SDS011;11950;51.230;4.012;2022-07-01T13:39:25;6.70;;;5.10;;
23543;SDS011;11950;51.230;4.012;2022-07-01T13:41:52;9.82;;;4.20;;
23543;SDS011;11950;51.230;4.012;2022-07-01T13:44:18;8.13;;;3.03;;
23543;SDS011;11950;51.230;4.012;2022-07-01T13:46:44;10.18;;;3.13;;
23543;SDS011;11950;51.230;4.012;2022-07-01T13:49:10;6.20;;;2.05;;
23543;SDS011;11950;51.230;4.012;2022-07-01T13:51:37;5.18;;;1.83;;
23543;SDS011;11950;51.230;4.012;2022-07-01T13:54:03;4.75;;;1.70;;
23543;SDS011;11950;51.230;4.012;2022-07-01T13:56:29;4.68;;;1.58;;
23543;SDS011;11950;51.230;4.012;2022-07-01T13:58:56;2.63;;;1.33;;
23543;SDS011;11950;51.230;4.012;2022-07-01T14:01:22;5.15;;;1.10;;
23543;SDS011;11950;51.230;4.012;2022-07-01T14:03:49;5.18;;;1.20;;
23543;SDS011;11950;51.230;4.012;2022-07-01T14:06:16;3.15;;;0.75;;
23543;SDS011;11950;51.230;4.012;2022-07-01T14:08:43;3.35;;;0.70;;
23543;SDS011;11950;51.230;4.012;2022-07-01T14:11:10;2.45;;;0.73;;
23543;SDS011;11950;51.230;4.012;2022-07-01T14:13:37;4.10;;;0.70;;
23543;SDS011;11950;51.230;4.012;2022-07-01T14:16:04;3.03;;;0.80;;
23543;SDS011;11950;51.230;4.012;2022-07-01T14:18:33;3.80;;;0.60;;
23543;SDS011;11950;51.230;4.012;2022-07-01T14:21:00;5.90;;;0.90;;
23543;SDS011;11950;51.230;4.012;2022-07-01T14:23:27;3.40;;;0.70;;
23543;SDS011;11950;51.230;4.012;2022-07-01T14:25:53;4.95;;;0.60;;
23543;SDS011;11950;51.230;4.012;2022-07-01T14:28:19;2.05;;;0.70;;
23543;SDS011;11950;51.230;4.012;2022-07-01T14:30:46;1.65;;;0.60;;
23543;SDS011;11950;51.230;4.012;2022-07-01T14:33:13;4.15;;;0.70;;
23543;SDS011;11950;51.230;4.012;2022-07-01T14:35:39;4.00;;;0.82;;
23543;SDS011;11950;51.230;4.012;2022-07-01T14:38:06;5.60;;;1.05;;
23543;SDS011;11950;51.230;4.012;2022-07-01T14:40:32;1.98;;;0.65;;
23543;SDS011;11950;51.230;4.012;2022-07-01T14:42:59;2.13;;;0.90;;
23543;SDS011;11950;51.230;4.012;2022-07-01T14:45:26;2.15;;;0.80;;
23543;SDS011;11950;51.230;4.012;2022-07-01T14:47:52;2.00;;;0.95;;
23543;SDS011;11950;51.230;4.012;2022-07-01T14:50:19;3.63;;;0.77;;
23543;SDS011;11950;51.230;4.012;2022-07-01T14:52:45;4.82;;;0.80;;
23543;SDS011;11950;51.230;4.012;2022-07-01T14:55:11;4.53;;;0.63;;
23543;SDS011;11950;51.230;4.012;2022-07-01T14:57:38;2.63;;;0.80;;
23543;SDS011;11950;51.230;4.012;2022-07-01T15:00:05;4.28;;;0.82;;
23543;SDS011;11950;51.230;4.012;2022-07-01T15:02:32;4.35;;;0.80;;
23543;SDS011;11950;51.230;4.012;2022-07-01T15:04:58;4.65;;;0.82;;
23543;SDS011;11950;51.230;4.012;2022-07-01T15:07:24;2.65;;;0.77;;
23543;SDS011;11950;51.230;4.012;2022-07-01T15:09:51;4.32;;;0.80;;
23543;SDS011;11950;51.230;4.012;2022-07-01T15:12:18;2.35;;;0.73;;
23543;SDS011;11950;51.230;4.012;2022-07-01T15:14:44;5.07;;;0.90;;
23543;SDS011;11950;51.230;4.012;2022-07-01T15:17:10;4.20;;;0.90;;
23543;SDS011;11950;51.230;4.012;2022-07-01T15:19:37;6.78;;;1.23;;
23543;SDS011;11950;51.230;4.012;2022-07-01T15:22:07;2.85;;;0.90;;
23543;SDS011;11950;51.230;4.012;2022-07-01T15:24:34;5.43;;;0.77;;
23543;SDS011;11950;51.230;4.012;2022-07-01T15:27:01;5.47;;;0.80;;
23543;SDS011;11950;51.230;4.012;2022-07-01T15:29:28;6.30;;;1.20;;
23543;SDS011;11950;51.230;4.012;2022-07-01T15:31:57;4.53;;;0.93;;
23543;SDS011;11950;51.230;4.012;2022-07-01T15:34:25;4.72;;;0.95;;